createdAt,value
2018-12-14T00:00:15.954Z,98.49
2018-12-14T00:02:46.169Z,98.58
2018-12-14T00:05:18.802Z,98.23
2018-12-14T00:07:49.625Z,98.21
2018-12-14T00:10:22.731Z,97.89
2018-12-14T00:12:53.056Z,98.11
2018-12-14T00:19:16.652Z,98.10
2018-12-14T00:21:46.772Z,98.06
2018-12-14T00:24:17.736Z,98.66
2018-12-14T00:26:49.855Z,98.64
2018-12-14T00:29:26.533Z,98.86
2018-12-14T00:31:57.876Z,98.88
2018-12-14T00:34:28.555Z,98.75
2018-12-14T00:36:59.257Z,98.74
2018-12-14T00:39:29.884Z,98.35
2018-12-14T00:42:00.748Z,98.16
2018-12-14T00:44:31.004Z,98.97
2018-12-14T00:47:07.901Z,97.76
2018-12-14T00:49:38.806Z,97.70
2018-12-14T00:52:09.973Z,98.17
2018-12-14T00:54:40.110Z,98.61
2018-12-14T00:57:16.931Z,98.24
2018-12-14T00:59:46.956Z,98.33
2018-12-14T01:02:23.276Z,98.37
2018-12-14T01:04:55.050Z,98.73
2018-12-14T01:07:31.863Z,99.02
2018-12-14T01:10:01.924Z,98.78
2018-12-14T01:12:32.147Z,99.21
2018-12-14T01:15:06.384Z,98.32
2018-12-14T01:17:39.065Z,98.81
2018-12-14T01:20:10.553Z,98.23
2018-12-14T01:22:40.914Z,98.41
2018-12-14T01:25:11.233Z,98.86
2018-12-14T01:27:42.099Z,99.26
2018-12-14T01:30:12.892Z,98.72
2018-12-14T01:32:43.156Z,98.54
2018-12-14T01:35:14.257Z,98.67
2018-12-14T01:37:44.767Z,99.00
2018-12-14T01:40:15.170Z,98.13
2018-12-14T01:42:46.296Z,98.65
2018-12-14T01:45:17.124Z,98.12
2018-12-14T01:47:47.532Z,98.08
2018-12-14T01:50:18.120Z,98.16
2018-12-14T01:52:53.206Z,98.02
2018-12-14T01:55:25.256Z,98.61
2018-12-14T01:57:58.890Z,98.38
2018-12-14T02:00:30.278Z,98.69
2018-12-14T02:03:01.227Z,97.93
2018-12-14T02:05:32.261Z,98.06
2018-12-14T02:08:05.836Z,97.84
2018-12-14T02:10:37.299Z,97.48
2018-12-14T02:13:09.420Z,97.54
2018-12-14T02:15:40.464Z,98.12
2018-12-14T02:18:11.008Z,97.76
2018-12-14T02:20:41.243Z,97.53
2018-12-14T02:23:15.148Z,97.22
2018-12-14T02:25:45.327Z,97.63
2018-12-14T02:28:16.337Z,97.72
2018-12-14T02:30:46.784Z,98.00
2018-12-14T02:33:17.425Z,97.21
2018-12-14T02:35:49.304Z,97.88
2018-12-14T02:38:21.486Z,97.29
2018-12-14T02:40:52.354Z,97.92
2018-12-14T02:43:23.981Z,97.42
2018-12-14T02:45:56.663Z,97.39
2018-12-14T02:48:27.803Z,97.18
2018-12-14T02:50:58.484Z,97.52
2018-12-14T02:53:31.471Z,96.67
2018-12-14T02:56:05.625Z,96.83
2018-12-14T02:58:36.546Z,97.11
2018-12-14T03:01:07.140Z,97.82
2018-12-14T03:03:37.741Z,97.04
2018-12-14T03:06:08.888Z,98.05
2018-12-14T03:08:39.864Z,97.51
2018-12-14T03:11:14.420Z,97.49
2018-12-14T03:13:44.448Z,98.20
2018-12-14T03:16:17.215Z,98.20
2018-12-14T03:18:49.539Z,97.91
2018-12-14T03:21:21.619Z,97.32
2018-12-14T03:23:54.524Z,97.34
2018-12-14T03:26:28.873Z,97.30
2018-12-14T03:28:59.618Z,96.78
2018-12-14T03:31:30.162Z,97.40
2018-12-14T03:34:00.820Z,98.03
2018-12-14T03:36:31.390Z,98.06
2018-12-14T03:39:01.772Z,97.42
2018-12-14T03:41:32.694Z,97.49
2018-12-14T03:44:02.841Z,97.48
2018-12-14T03:46:33.621Z,97.96
2018-12-14T03:49:10.479Z,97.63
2018-12-14T03:51:42.763Z,97.21
2018-12-14T03:54:13.748Z,97.89
2018-12-14T03:56:45.758Z,97.71
2018-12-14T03:59:16.604Z,97.24
2018-12-14T04:01:46.808Z,97.84
2018-12-14T04:04:17.857Z,97.55
2018-12-14T04:06:50.213Z,97.47
2018-12-14T04:09:22.717Z,97.54
2018-12-14T04:11:52.874Z,97.08
2018-12-14T04:14:22.973Z,97.18
2018-12-14T04:16:56.562Z,97.54
2018-12-14T04:19:28.853Z,97.61
2018-12-14T04:21:58.960Z,97.51
2018-12-14T04:24:29.679Z,97.27
2018-12-14T04:26:59.888Z,97.23
2018-12-14T04:29:31.527Z,97.46
2018-12-14T04:32:02.173Z,98.20
2018-12-14T04:34:32.832Z,98.05
2018-12-14T04:37:02.929Z,97.37
2018-12-14T04:39:33.869Z,97.12
2018-12-14T04:42:04.023Z,98.11
2018-12-14T04:44:34.848Z,98.25
2018-12-14T04:47:05.640Z,98.34
2018-12-14T04:49:36.133Z,98.54
2018-12-14T04:56:04.777Z,97.94
2018-12-14T04:58:34.865Z,97.34
2018-12-14T05:01:06.085Z,97.89
2018-12-14T05:04:04.620Z,98.01
2018-12-14T05:06:35.512Z,98.08
2018-12-14T05:09:08.407Z,98.67
2018-12-14T05:11:39.394Z,99.24
2018-12-14T05:14:11.113Z,99.32
2018-12-14T05:16:45.357Z,100.00
2018-12-14T05:19:18.201Z,100.00
2018-12-14T05:21:50.454Z,100.00
2018-12-14T05:24:22.174Z,100.00
2018-12-14T05:26:53.849Z,100.00
2018-12-14T05:29:24.307Z,100.00
2018-12-14T05:32:07.516Z,100.00
2018-12-14T05:34:39.176Z,100.00
2018-12-14T05:37:13.815Z,100.00
2018-12-14T05:39:45.651Z,100.00
2018-12-14T05:42:18.235Z,100.00
2018-12-14T05:44:50.164Z,100.00
2018-12-14T05:47:22.249Z,100.00
2018-12-14T05:49:59.235Z,100.00
2018-12-14T05:52:36.549Z,100.00
2018-12-14T05:55:07.506Z,100.00
2018-12-14T05:57:40.697Z,100.00
2018-12-14T06:00:12.806Z,100.00
2018-12-14T06:02:45.328Z,100.00
2018-12-14T06:05:18.260Z,100.00
2018-12-14T06:07:50.781Z,100.00
2018-12-14T06:10:23.319Z,100.00
2018-12-14T06:13:00.120Z,100.00
2018-12-14T06:15:30.355Z,100.00
2018-12-14T06:18:01.759Z,100.00
2018-12-14T06:20:32.321Z,100.00
2018-12-14T06:23:03.010Z,100.00
2018-12-14T06:25:33.777Z,100.00
2018-12-14T06:28:04.629Z,100.00
2018-12-14T06:30:34.944Z,100.00
2018-12-14T06:33:05.399Z,99.79
2018-12-14T06:35:36.126Z,100.00
2018-12-14T06:38:06.459Z,100.00
2018-12-14T06:40:37.100Z,99.96
2018-12-14T06:43:07.842Z,100.00
2018-12-14T06:45:46.506Z,100.00
2018-12-14T06:48:17.392Z,100.00
2018-12-14T06:50:48.057Z,100.00
2018-12-14T06:53:18.632Z,100.00
2018-12-14T06:55:55.540Z,100.00
2018-12-14T06:58:26.140Z,100.00
2018-12-14T07:00:56.516Z,100.00
2018-12-14T07:03:30.538Z,100.00
2018-12-14T07:06:03.572Z,100.00
2018-12-14T07:08:39.016Z,100.00
2018-12-14T07:11:11.535Z,100.00
2018-12-14T07:13:44.668Z,100.00
2018-12-14T07:16:21.503Z,100.00
2018-12-14T07:18:52.583Z,100.00
2018-12-14T07:21:29.367Z,100.00
2018-12-14T07:23:59.844Z,100.00
2018-12-14T07:26:30.803Z,100.00
2018-12-14T07:29:04.366Z,100.00
2018-12-14T07:31:34.488Z,100.00
2018-12-14T07:34:05.839Z,100.00
2018-12-14T07:36:36.675Z,100.00
2018-12-14T07:39:08.292Z,100.00
2018-12-14T07:41:38.796Z,100.00
2018-12-14T07:44:08.851Z,100.00
2018-12-14T07:46:39.017Z,100.00
2018-12-14T07:49:09.996Z,100.00
2018-12-14T07:51:40.571Z,100.00
2018-12-14T07:54:10.963Z,100.00
2018-12-14T07:56:41.759Z,100.00
2018-12-14T07:59:12.780Z,100.00
2018-12-14T08:01:42.827Z,100.00
2018-12-14T08:08:07.883Z,100.00
2018-12-14T08:10:39.889Z,100.00
2018-12-14T08:13:16.151Z,100.00
2018-12-14T08:15:46.782Z,100.00
2018-12-14T08:18:17.715Z,100.00
2018-12-14T08:20:48.511Z,100.00
2018-12-14T08:23:19.032Z,100.00
2018-12-14T08:25:49.890Z,100.00
2018-12-14T08:28:26.944Z,100.00
2018-12-14T08:30:57.815Z,100.00
2018-12-14T08:33:28.121Z,99.87
2018-12-14T08:35:58.992Z,100.00
2018-12-14T08:38:35.776Z,100.00
2018-12-14T08:41:07.135Z,99.99
2018-12-14T08:43:41.361Z,99.70
2018-12-14T08:46:10.946Z,99.89
2018-12-14T08:48:41.746Z,99.78
2018-12-14T08:51:12.171Z,99.44
2018-12-14T08:53:43.358Z,99.26
2018-12-14T08:56:13.528Z,99.36
2018-12-14T08:58:43.992Z,99.50
2018-12-14T09:01:14.520Z,99.58
2018-12-14T09:03:44.993Z,98.78
2018-12-14T09:06:16.272Z,98.56
2018-12-14T09:08:46.630Z,98.43
2018-12-14T09:11:17.374Z,98.89
2018-12-14T09:13:47.992Z,98.51
2018-12-14T09:16:18.804Z,97.91
2018-12-14T09:18:49.276Z,98.04
2018-12-14T09:21:19.939Z,97.82
2018-12-14T09:23:50.125Z,98.15
2018-12-14T09:26:22.164Z,98.35
2018-12-14T09:28:52.262Z,98.40
2018-12-14T09:31:23.384Z,98.41
2018-12-14T09:33:54.427Z,98.20
2018-12-14T09:36:24.856Z,97.95
2018-12-14T09:38:55.377Z,97.17
2018-12-14T09:41:26.351Z,97.14
2018-12-14T09:43:57.149Z,96.76
2018-12-14T09:46:27.499Z,96.78
2018-12-14T09:48:58.544Z,97.07
2018-12-14T09:51:32.260Z,96.17
2018-12-14T09:54:03.373Z,96.14
2018-12-14T09:56:40.768Z,95.66
2018-12-14T09:59:13.725Z,95.72
2018-12-14T10:01:46.470Z,95.40
2018-12-14T10:04:17.389Z,94.26
2018-12-14T10:06:47.803Z,94.07
2018-12-14T10:09:18.528Z,93.88
2018-12-14T10:11:54.916Z,94.08
2018-12-14T10:14:22.980Z,93.42
2018-12-14T10:16:53.417Z,93.14
2018-12-14T10:19:28.348Z,92.54
2018-12-14T10:22:00.350Z,92.62
2018-12-14T10:24:32.977Z,93.32
2018-12-14T10:27:05.728Z,92.61
2018-12-14T10:29:36.085Z,92.09
2018-12-14T10:32:06.415Z,93.21
2018-12-14T10:34:43.899Z,92.50
2018-12-14T10:37:14.672Z,91.02
2018-12-14T10:39:45.576Z,91.58
2018-12-14T10:42:18.873Z,90.79
2018-12-14T10:44:50.935Z,91.58
2018-12-14T10:47:23.616Z,92.11
2018-12-14T10:50:01.238Z,91.84
2018-12-14T10:52:34.139Z,90.84
2018-12-14T10:55:07.348Z,92.21
2018-12-14T10:57:40.375Z,92.17
2018-12-14T11:00:18.769Z,92.77
2018-12-14T11:02:51.666Z,91.35
2018-12-14T11:05:24.621Z,91.64
2018-12-14T11:07:55.820Z,90.76
2018-12-14T11:10:26.568Z,90.54
2018-12-14T11:12:59.590Z,89.58
2018-12-14T11:15:30.625Z,90.78
2018-12-14T11:18:01.878Z,92.04
2018-12-14T11:20:34.530Z,91.96
2018-12-14T11:23:06.196Z,91.82
2018-12-14T11:25:38.096Z,91.64
2018-12-14T11:28:09.123Z,91.63
2018-12-14T11:30:40.167Z,91.73
2018-12-14T11:33:10.288Z,90.89
2018-12-14T11:35:41.229Z,90.99
2018-12-14T11:38:12.241Z,91.29
2018-12-14T11:40:42.919Z,92.18
2018-12-14T11:43:17.017Z,91.36
2018-12-14T11:45:47.779Z,91.79
2018-12-14T11:48:18.136Z,92.59
2018-12-14T11:50:50.209Z,92.38
2018-12-14T11:57:15.247Z,90.39
2018-12-14T11:59:46.560Z,92.15
2018-12-14T12:02:16.206Z,91.62
2018-12-14T12:04:46.352Z,92.15
2018-12-14T12:07:17.415Z,92.43
2018-12-14T12:09:47.119Z,92.56
2018-12-14T12:12:18.396Z,92.08
2018-12-14T12:14:50.340Z,91.60
2018-12-14T12:17:20.346Z,91.69
2018-12-14T12:19:53.623Z,92.53
2018-12-14T12:22:24.731Z,91.91
2018-12-14T12:24:55.328Z,91.63
2018-12-14T12:27:26.031Z,92.63
2018-12-14T12:33:51.680Z,92.69
2018-12-14T12:36:22.630Z,92.61
2018-12-14T12:38:53.637Z,92.87
2018-12-14T12:41:23.658Z,93.36
2018-12-14T12:43:55.639Z,92.97
2018-12-14T12:46:25.655Z,93.06
2018-12-14T12:48:55.845Z,92.92
2018-12-14T12:51:26.948Z,93.61
2018-12-14T12:53:57.459Z,92.58
2018-12-14T12:56:28.793Z,92.49
2018-12-14T12:58:59.506Z,92.55
2018-12-14T13:01:29.748Z,93.96
2018-12-14T13:04:00.483Z,92.40
2018-12-14T13:06:30.444Z,91.57
2018-12-14T13:09:01.633Z,92.91
2018-12-14T13:11:31.665Z,92.31
2018-12-14T13:14:02.863Z,92.25
2018-12-14T13:16:33.457Z,93.04
2018-12-14T13:19:04.037Z,93.03
2018-12-14T13:21:34.949Z,93.73
2018-12-14T13:24:04.944Z,93.68
2018-12-14T13:26:41.706Z,93.89
2018-12-14T13:29:12.514Z,93.52
2018-12-14T13:31:46.501Z,93.70
2018-12-14T13:34:16.768Z,94.78
2018-12-14T13:36:49.636Z,94.31
2018-12-14T13:39:21.021Z,93.29
2018-12-14T13:41:54.180Z,94.10
2018-12-14T13:44:26.532Z,93.64
2018-12-14T13:46:58.899Z,94.86
2018-12-14T13:49:30.695Z,95.46
2018-12-14T13:52:00.733Z,95.76
2018-12-14T13:58:24.100Z,95.30
2018-12-14T14:00:54.005Z,95.20
2018-12-14T14:03:25.650Z,95.43
2018-12-14T14:05:57.042Z,94.61
2018-12-14T14:08:27.065Z,95.45
2018-12-14T14:10:56.971Z,95.38
2018-12-14T14:13:28.290Z,96.27
2018-12-14T14:16:01.277Z,95.98
2018-12-14T14:18:33.145Z,96.60
2018-12-14T14:21:08.905Z,96.62
2018-12-14T14:23:40.610Z,95.83
2018-12-14T14:26:24.314Z,95.90
2018-12-14T14:28:56.009Z,96.15
2018-12-14T14:31:26.835Z,96.44
2018-12-14T14:33:59.977Z,96.79
2018-12-14T14:36:35.484Z,96.45
2018-12-14T14:39:12.806Z,96.31
2018-12-14T14:41:43.852Z,97.05
2018-12-14T14:44:14.081Z,96.68
2018-12-14T14:46:44.161Z,96.21
2018-12-14T14:49:15.278Z,97.21
2018-12-14T14:51:45.617Z,96.83
2018-12-14T14:54:16.063Z,96.30
2018-12-14T14:56:49.901Z,96.65
2018-12-14T14:59:21.317Z,96.99
2018-12-14T15:01:52.395Z,97.50
2018-12-14T15:04:22.704Z,96.87
2018-12-14T15:07:05.183Z,96.99
2018-12-14T15:09:36.227Z,97.11
2018-12-14T15:12:06.176Z,96.83
2018-12-14T15:14:37.264Z,96.87
2018-12-14T15:17:08.252Z,96.62
2018-12-14T15:19:38.931Z,97.39
2018-12-14T15:22:09.143Z,96.76
2018-12-14T15:24:40.159Z,96.58
2018-12-14T15:27:10.116Z,96.71
2018-12-14T15:29:41.440Z,97.30
2018-12-14T15:32:12.639Z,96.32
2018-12-14T15:34:42.167Z,96.16
2018-12-14T15:37:14.241Z,96.16
2018-12-14T15:39:46.565Z,95.80
2018-12-14T15:42:17.546Z,96.66
2018-12-14T15:44:47.201Z,96.74
2018-12-14T15:47:18.651Z,95.72
2018-12-14T15:49:49.639Z,96.67
2018-12-14T15:52:20.282Z,97.14
2018-12-14T15:54:51.518Z,97.03
2018-12-14T15:57:21.957Z,96.68
2018-12-14T15:59:53.252Z,96.21
2018-12-14T16:02:23.712Z,97.26
2018-12-14T16:04:53.425Z,97.26
2018-12-14T16:07:25.312Z,97.53
2018-12-14T16:09:56.205Z,96.44
2018-12-14T16:12:30.239Z,96.54
2018-12-14T16:15:00.895Z,96.92
2018-12-14T16:17:31.421Z,96.64
2018-12-14T16:20:02.062Z,96.80
2018-12-14T16:22:33.526Z,97.09
2018-12-14T16:25:07.189Z,96.00
2018-12-14T16:27:39.982Z,96.28
2018-12-14T16:30:13.064Z,96.48
2018-12-14T16:32:43.962Z,95.97
2018-12-14T16:35:14.129Z,96.34
2018-12-14T16:37:44.292Z,96.40
2018-12-14T16:40:14.471Z,96.63
2018-12-14T16:42:44.588Z,97.07
2018-12-14T16:45:14.898Z,97.02
2018-12-14T16:47:45.129Z,96.61
2018-12-14T16:50:16.409Z,96.69
2018-12-14T16:52:47.687Z,96.08
2018-12-14T16:55:18.032Z,96.00
2018-12-14T16:57:49.732Z,96.59
2018-12-14T17:00:20.208Z,96.44
2018-12-14T17:02:50.469Z,96.44
2018-12-14T17:05:20.548Z,96.96
2018-12-14T17:07:51.004Z,96.76
2018-12-14T17:10:21.225Z,96.82
2018-12-14T17:12:51.441Z,96.34
2018-12-14T17:15:21.577Z,96.04
2018-12-14T17:17:51.968Z,96.39
2018-12-14T17:20:23.039Z,96.43
2018-12-14T17:22:53.165Z,96.57
2018-12-14T17:25:24.300Z,95.94
2018-12-14T17:27:55.366Z,96.19
2018-12-14T17:30:25.730Z,96.23
2018-12-14T17:32:55.948Z,96.66
2018-12-14T17:35:26.216Z,96.51
2018-12-14T17:37:56.295Z,95.45
2018-12-14T17:40:26.652Z,96.55
2018-12-14T17:42:56.809Z,96.12
2018-12-14T17:45:26.951Z,95.89
2018-12-14T17:47:57.079Z,96.42
2018-12-14T17:50:27.568Z,97.17
2018-12-14T17:52:57.718Z,96.74
2018-12-14T17:55:27.951Z,97.25
2018-12-14T17:57:58.644Z,96.62
2018-12-14T18:00:28.904Z,97.27
2018-12-14T18:02:58.932Z,96.59
2018-12-14T18:05:29.063Z,97.11
2018-12-14T18:08:05.447Z,96.44
2018-12-14T18:10:35.610Z,96.49
2018-12-14T18:13:05.800Z,96.56
2018-12-14T18:15:36.128Z,97.33
2018-12-14T18:18:06.351Z,97.21
2018-12-14T18:20:36.583Z,97.02
2018-12-14T18:23:06.680Z,96.84
2018-12-14T18:25:36.882Z,96.47
2018-12-14T18:28:06.921Z,97.02
2018-12-14T18:30:37.795Z,96.68
2018-12-14T18:33:09.253Z,96.76
2018-12-14T18:35:39.599Z,97.18
2018-12-14T18:38:10.874Z,97.52
2018-12-14T18:40:41.209Z,97.78
2018-12-14T18:43:11.402Z,97.15
2018-12-14T18:45:41.990Z,97.82
2018-12-14T18:48:12.374Z,97.77
2018-12-14T18:50:42.649Z,97.64
2018-12-14T18:53:12.916Z,97.19
2018-12-14T18:55:43.225Z,96.79
2018-12-14T18:58:13.458Z,97.35
2018-12-14T19:00:43.690Z,97.26
2018-12-14T19:03:14.447Z,97.06
2018-12-14T19:05:44.481Z,97.83
2018-12-14T19:08:14.778Z,97.38
2018-12-14T19:10:45.097Z,98.26
2018-12-14T19:13:15.363Z,97.83
2018-12-14T19:15:45.432Z,98.34
2018-12-14T19:18:15.665Z,97.80
2018-12-14T19:20:45.837Z,98.78
2018-12-14T19:27:12.358Z,98.47
2018-12-14T19:29:42.603Z,98.59
2018-12-14T19:32:13.444Z,99.39
2018-12-14T19:34:43.894Z,99.18
2018-12-14T19:37:14.203Z,99.28
2018-12-14T19:39:44.667Z,98.58
2018-12-14T19:42:14.758Z,99.97
2018-12-14T19:44:44.979Z,100.00
2018-12-14T19:47:15.555Z,99.86
2018-12-14T19:49:45.977Z,99.63
2018-12-14T19:52:16.315Z,99.38
2018-12-14T19:54:46.420Z,100.00
2018-12-14T19:57:16.751Z,100.00
2018-12-14T19:59:47.138Z,100.00
2018-12-14T20:02:17.607Z,100.00
2018-12-14T20:04:47.883Z,100.00
2018-12-14T20:07:18.150Z,100.00
2018-12-14T20:09:48.214Z,100.00
2018-12-14T20:12:18.540Z,100.00
2018-12-14T20:14:48.905Z,100.00
2018-12-14T20:17:19.124Z,100.00
2018-12-14T20:19:49.354Z,100.00
2018-12-14T20:22:19.694Z,100.00
2018-12-14T20:24:50.115Z,100.00
2018-12-14T20:27:21.294Z,100.00
2018-12-14T20:29:51.485Z,100.00
2018-12-14T20:32:21.698Z,100.00
2018-12-14T20:34:52.082Z,100.00
2018-12-14T20:37:22.383Z,100.00
2018-12-14T20:39:52.791Z,100.00
2018-12-14T20:42:23.102Z,100.00
2018-12-14T20:44:53.479Z,100.00
2018-12-14T20:47:23.660Z,100.00
2018-12-14T20:49:53.774Z,100.00
2018-12-14T20:52:24.139Z,100.00
2018-12-14T20:54:54.239Z,100.00
2018-12-14T20:57:24.576Z,100.00
2018-12-14T20:59:54.693Z,100.00
2018-12-14T21:02:24.954Z,100.00
2018-12-14T21:04:55.269Z,100.00
2018-12-14T21:07:25.762Z,100.00
2018-12-14T21:09:55.985Z,100.00
2018-12-14T21:12:26.207Z,100.00
2018-12-14T21:14:56.540Z,100.00
2018-12-14T21:17:26.916Z,100.00
2018-12-14T21:19:57.253Z,100.00
2018-12-14T21:22:27.402Z,100.00
2018-12-14T21:24:57.580Z,100.00
2018-12-14T21:27:27.962Z,100.00
2018-12-14T21:29:58.191Z,100.00
2018-12-14T21:32:28.353Z,100.00
2018-12-14T21:34:58.695Z,100.00
2018-12-14T21:37:29.074Z,100.00
2018-12-14T21:39:59.281Z,100.00
2018-12-14T21:42:29.850Z,100.00
2018-12-14T21:45:00.241Z,100.00
2018-12-14T21:47:30.439Z,100.00
2018-12-14T21:50:00.735Z,100.00
2018-12-14T21:52:31.251Z,100.00
2018-12-14T21:55:01.484Z,100.00
2018-12-14T21:57:31.841Z,100.00
2018-12-14T22:00:02.088Z,100.00
2018-12-14T22:06:21.353Z,100.00
2018-12-14T22:08:52.009Z,100.00
2018-12-14T22:11:22.206Z,100.00
2018-12-14T22:13:52.426Z,100.00
2018-12-14T22:16:23.283Z,100.00
2018-12-14T22:18:53.523Z,100.00
2018-12-14T22:21:24.209Z,100.00
2018-12-14T22:23:54.756Z,100.00
2018-12-14T22:26:25.031Z,100.00
2018-12-14T22:28:55.167Z,100.00
2018-12-14T22:31:25.299Z,100.00
2018-12-14T22:33:55.496Z,100.00
2018-12-14T22:36:25.904Z,100.00
2018-12-14T22:38:56.111Z,100.00
2018-12-14T22:41:26.296Z,100.00
2018-12-14T22:43:56.882Z,100.00
2018-12-14T22:46:27.337Z,100.00
2018-12-14T22:48:57.444Z,100.00
2018-12-14T22:51:27.563Z,100.00
2018-12-14T22:53:57.785Z,100.00
2018-12-14T22:56:27.893Z,100.00
2018-12-14T22:58:58.224Z,100.00
2018-12-14T23:01:28.569Z,100.00
2018-12-14T23:03:58.729Z,100.00
2018-12-14T23:06:29.020Z,100.00
2018-12-14T23:08:59.136Z,100.00
2018-12-14T23:11:29.480Z,100.00
2018-12-14T23:14:00.302Z,100.00
2018-12-14T23:16:30.912Z,100.00
2018-12-14T23:19:01.172Z,100.00
2018-12-14T23:21:34.315Z,100.00
2018-12-14T23:24:04.650Z,100.00
2018-12-14T23:26:34.842Z,100.00
2018-12-14T23:29:05.001Z,100.00
2018-12-14T23:31:35.727Z,100.00
2018-12-14T23:34:06.227Z,100.00
2018-12-14T23:36:36.584Z,100.00
2018-12-14T23:39:08.272Z,100.00
2018-12-14T23:41:38.459Z,100.00
2018-12-14T23:44:08.568Z,100.00
2018-12-14T23:46:38.865Z,100.00
2018-12-14T23:49:09.180Z,100.00
2018-12-14T23:51:39.508Z,100.00
2018-12-14T23:54:10.088Z,100.00
2018-12-14T23:56:40.199Z,100.00
2018-12-14T23:59:10.311Z,100.00
